Aeroporto :
LOGIN :

Iscrizione | Disclaimer

   EN    FR    IT 

 










Sommario :    VFR   VFR Marginale   IFR   IFR Intensivo   IFR Molto Intensivo
Visibilità : 
Base nubi : 
>= 8 km
>= 3000ft
5 / 8 km
1000 / 3000 ft
1500m / 5 km
500 / 1000 ft
800 / 1500m
200 / 500 ft
< 800m
< 200 ft
Simboli :   Temporali  Nebbia  Neve Forte  Precipitazioni Forti  Vento > 20 kt
SIGMETs :   Varie  Temporali  Ghiacco  Turbolenza  Onda orograficha  Ceneri Vulcaniche






- Altitudine del aeroporto : 203 ft
- Codice IATA : XMJ


LFBM - Mont-De-Marsan

ULTIMO METAR :
  • 120000Z AUTO 24005KT CAVOK 09/07 Q1017 BECMG BKN008 OVC015

METARs OBSOLETI :
  • 112330Z AUTO 24004KT 9999 FEW017 SCT031 BKN050 09/07 Q1017 BECMG BKN008 OVC015
  • 112300Z AUTO 24004KT 210V270 9999 FEW028 BKN070 OVC090 08/07 Q1018 BECMG BKN008 OVC015
  • 112230Z AUTO VRB03KT 9999 BKN038 BKN045 BKN054 08/07 Q1018 BECMG BKN008 OVC015
  • 112200Z AUTO 22005KT 9999 BKN039 BKN047 BKN062 09/07 Q1018 BECMG 28010KT BKN008 OVC015
  • 112130Z AUTO 25011KT 9999 FEW015/// SCT068/// BKN098/// ///CB 08/06 Q1018 BECMG BKN008 OVC015

TAF TAF LFBM
Valido dal 11 a 21 ore il 12 a 21 ore UTC


112000Z 1121/1221 28010KT 9999 BKN010 BKN020CB
BECMG 1121/1124 BKN008 OVC015
TEMPO 1203/1218 27015G25KT 4000 SHRA SCT007 BKN012CB OVC030
BECMG 1218/1220 27020G40KT BKN020 BKN060



MetMap, La meteo Aeronautica in un colpo d'occhio ! - Copyright ORBIFLY Dicembre 2007 - Disclaimer

ORBIFLY MET'MAP TEAM :

Programmazione e sviluppo : Alexandra Zaïnal
Concezione : Baudouin d'Aumeries
Aiuto per la programmazione : Marc-Olivier Méhu
Supporto tecnico e logistico : Manuel Goepfert
Aiuto per la traduzione : Arnaldo La Scala

Contatto : metmap@orbifly.com




FONTI E CREDITI :

   NOAA